Time;durP1;ratioP1;P1;durP2;ratioP2;P2;SDS_P1;SDS_P2;PMS_P1;PMS_P2;Temp;Humidity;BMP_temperature;BMP_pressure;BME280_temperature;BME280_humidity;BME280_pressure;Samples;Min_cycle;Max_cycle;Signal;HPM_P1;HPM_P2
2021/12/01 03:45:30;;;;;;;0.45;0.32;;;8.50;93.90;;;;;;5880515;24;20325;31
2021/12/01 03:47:56;;;;;;;0.30;0.30;;;8.50;93.60;;;;;;4831500;29;20042;-80
2021/12/01 03:50:22;;;;;;;0.28;0.28;;;8.50;93.60;;;;;;4822013;29;20331;-80
2021/12/01 03:52:48;;;;;;;0.10;0.10;;;8.50;93.50;;;;;;4817334;29;20057;-80
2021/12/01 03:55:14;;;;;;;0.68;0.30;;;8.50;93.60;;;;;;4829608;29;20097;-80
2021/12/01 03:57:40;;;;;;;1.58;0.43;;;8.60;93.50;;;;;;4834188;29;20053;-80
2021/12/01 04:00:09;;;;;;;0.60;0.50;;;8.50;93.60;;;;;;4831644;29;20039;-80
2021/12/01 04:02:41;;;;;;;0.55;0.30;;;8.50;93.70;;;;;;4827795;29;20038;-80
2021/12/01 04:05:07;;;;;;;0.22;0.20;;;8.40;93.80;;;;;;4823284;29;20459;-80
2021/12/01 04:07:33;;;;;;;0.47;0.30;;;8.40;93.90;;;;;;4841820;29;20102;-81
2021/12/01 04:10:00;;;;;;;1.38;0.40;;;8.40;94.00;;;;;;4838024;29;20038;-81
2021/12/01 04:12:25;;;;;;;0.50;0.30;;;8.40;94.00;;;;;;4811981;29;20035;-81
2021/12/01 04:14:51;;;;;;;0.85;0.30;;;8.40;94.20;;;;;;4822365;29;20038;-81
2021/12/01 04:17:18;;;;;;;0.30;0.30;;;8.40;94.30;;;;;;4827698;29;20089;-81
2021/12/01 04:19:45;;;;;;;0.38;0.30;;;8.30;94.40;;;;;;4821701;29;20065;-80
2021/12/01 04:22:11;;;;;;;0.28;0.22;;;8.30;94.50;;;;;;4830670;29;20083;-81
2021/12/01 04:24:37;;;;;;;0.40;0.40;;;8.30;94.50;;;;;;4827700;29;20062;-80
2021/12/01 04:27:03;;;;;;;0.47;0.30;;;8.30;94.60;;;;;;4823907;29;20272;-81
2021/12/01 04:29:32;;;;;;;0.63;0.40;;;8.30;94.60;;;;;;4800468;29;20274;-80
2021/12/01 04:31:57;;;;;;;0.20;0.20;;;8.20;94.60;;;;;;4815496;29;20046;-81
2021/12/01 04:34:23;;;;;;;0.20;0.20;;;8.30;94.60;;;;;;4815658;29;20034;-80
2021/12/01 04:36:50;;;;;;;1.27;0.50;;;8.30;94.60;;;;;;4818500;29;20110;-81
2021/12/01 04:39:17;;;;;;;;;;;8.30;94.70;;;;;;4844618;29;20030;-81
2021/12/01 04:44:37;;;;;;;0.50;0.32;;;8.30;94.80;;;;;;4869446;29;20286;-81
2021/12/01 04:47:08;;;;;;;1.10;0.55;;;8.30;94.90;;;;;;4837125;29;20048;-81
2021/12/01 04:49:39;;;;;;;0.57;0.40;;;8.30;95.00;;;;;;4835728;29;20062;-80
2021/12/01 04:52:06;;;;;;;1.15;0.60;;;8.30;95.10;;;;;;4836470;29;20061;-80
2021/12/01 04:54:33;;;;;;;1.35;0.50;;;8.30;95.10;;;;;;4835655;29;20143;-81
2021/12/01 04:57:02;;;;;;;1.60;0.93;;;8.30;95.10;;;;;;4850864;29;20357;-80
2021/12/01 04:59:28;;;;;;;0.30;0.30;;;8.40;95.10;;;;;;4850634;29;20261;-80
2021/12/01 05:01:55;;;;;;;0.70;0.50;;;8.40;95.10;;;;;;4835341;29;20059;-81
2021/12/01 05:04:22;;;;;;;1.17;0.60;;;8.50;95.00;;;;;;4835699;29;20038;-81
2021/12/01 05:06:48;;;;;;;1.60;0.57;;;8.50;94.90;;;;;;4850431;29;20217;-80
2021/12/01 05:09:14;;;;;;;0.85;0.68;;;8.50;94.90;;;;;;4835573;29;20504;-80
2021/12/01 05:11:40;;;;;;;1.70;0.60;;;8.60;94.90;;;;;;4850244;29;20118;-81
2021/12/01 05:14:06;;;;;;;0.32;0.30;;;8.50;95.00;;;;;;4835315;29;20302;-81
2021/12/01 05:16:35;;;;;;;0.32;0.32;;;8.60;95.00;;;;;;4850438;29;20285;-81
2021/12/01 05:19:01;;;;;;;0.82;0.70;;;8.60;95.10;;;;;;4850494;29;20086;-81
2021/12/01 05:21:27;;;;;;;1.05;0.77;;;8.60;95.20;;;;;;4809335;29;20041;-81
2021/12/01 05:23:53;;;;;;;0.82;0.43;;;8.60;95.30;;;;;;4778640;29;20268;-81
2021/12/01 05:26:19;;;;;;;1.83;0.65;;;8.60;95.40;;;;;;4802983;29;20047;-81
2021/12/01 05:28:45;;;;;;;3.63;0.70;;;8.60;95.30;;;;;;4789743;29;20106;-81
2021/12/01 05:31:11;;;;;;;0.55;0.47;;;8.70;95.30;;;;;;4819552;29;20043;-81
2021/12/01 05:33:39;;;;;;;0.90;0.57;;;8.70;95.40;;;;;;4820606;29;20034;-81
2021/12/01 05:36:05;;;;;;;0.38;0.38;;;8.70;95.50;;;;;;4829527;29;20330;-81
2021/12/01 05:38:31;;;;;;;0.55;0.40;;;8.70;95.50;;;;;;4814419;29;20082;-81
2021/12/01 05:40:56;;;;;;;0.82;0.70;;;8.70;95.60;;;;;;4835521;29;20352;-81
2021/12/01 05:43:23;;;;;;;0.60;0.60;;;8.70;95.80;;;;;;4808257;29;20046;-81
2021/12/01 05:45:49;;;;;;;0.75;0.70;;;8.70;96.00;;;;;;4820281;29;20310;-81
2021/12/01 05:48:15;;;;;;;2.00;0.75;;;8.70;95.90;;;;;;4820677;29;20038;-81
2021/12/01 05:50:42;;;;;;;3.88;0.80;;;8.70;95.80;;;;;;4802519;29;20031;-81
2021/12/01 05:53:09;;;;;;;2.13;1.08;;;8.70;95.90;;;;;;4805257;29;20118;-80
2021/12/01 05:55:36;;;;;;;1.38;0.90;;;8.70;96.00;;;;;;4802509;29;20072;-81
2021/12/01 05:58:02;;;;;;;1.35;0.90;;;8.70;96.00;;;;;;4804654;29;20041;-81
2021/12/01 06:00:28;;;;;;;2.42;1.20;;;8.80;96.20;;;;;;4808047;29;20035;-80
2021/12/01 06:02:53;;;;;;;1.67;0.80;;;8.80;96.20;;;;;;4805358;29;20047;-81
2021/12/01 06:05:21;;;;;;;2.25;1.10;;;8.80;96.30;;;;;;4806350;29;20394;-81
2021/12/01 06:07:48;;;;;;;1.65;0.98;;;8.80;96.40;;;;;;4814423;29;20249;-81
2021/12/01 06:10:15;;;;;;;1.35;0.70;;;8.80;96.40;;;;;;4802351;29;20145;-81
2021/12/01 06:12:42;;;;;;;1.20;0.63;;;8.80;96.50;;;;;;4787405;30;20043;-80
2021/12/01 06:15:09;;;;;;;;;;;8.80;96.40;;;;;;4824086;29;20281;-81
2021/12/01 06:17:35;;;;;;;1.80;1.05;;;8.80;96.40;;;;;;4834053;29;19913;-80
2021/12/01 06:20:01;;;;;;;0.65;0.50;;;8.90;96.50;;;;;;4809029;29;20061;-81
2021/12/01 06:22:26;;;;;;;1.42;0.85;;;8.90;96.50;;;;;;4807441;29;20114;-81
2021/12/01 06:24:52;;;;;;;3.72;0.77;;;8.90;96.50;;;;;;4808719;29;20242;-81
2021/12/01 06:27:19;;;;;;;1.15;0.60;;;8.90;96.50;;;;;;4819962;29;20042;-81
2021/12/01 06:29:44;;;;;;;1.20;0.40;;;8.90;96.50;;;;;;4820176;29;20030;-81
2021/12/01 06:32:10;;;;;;;0.88;0.40;;;8.90;96.50;;;;;;4802322;29;20114;-81
2021/12/01 06:34:36;;;;;;;1.83;0.80;;;8.90;96.50;;;;;;4811477;29;20027;-81
2021/12/01 06:37:02;;;;;;;1.52;0.50;;;8.90;96.50;;;;;;4815310;29;20051;-81
2021/12/01 06:39:28;;;;;;;0.30;0.30;;;9.00;96.40;;;;;;4787227;29;20203;-81
2021/12/01 06:41:54;;;;;;;1.48;0.60;;;9.10;96.20;;;;;;4801954;29;20153;-81
2021/12/01 06:44:21;;;;;;;1.15;0.50;;;9.10;96.20;;;;;;4817000;29;20080;-81
2021/12/01 06:46:47;;;;;;;0.85;0.52;;;9.10;96.20;;;;;;4808567;29;20111;-82
2021/12/01 06:49:13;;;;;;;0.80;0.40;;;9.10;96.30;;;;;;4795573;29;20106;-82
2021/12/01 06:51:38;;;;;;;0.80;0.40;;;9.10;96.20;;;;;;4797802;29;20411;-81
2021/12/01 06:54:04;;;;;;;3.15;0.70;;;9.10;96.30;;;;;;4797933;29;20105;-81
2021/12/01 06:56:30;;;;;;;0.60;0.50;;;9.10;96.40;;;;;;4801036;29;20074;-81
2021/12/01 06:58:56;;;;;;;0.60;0.50;;;9.10;96.30;;;;;;4811777;29;20035;-81
2021/12/01 07:01:24;;;;;;;0.77;0.43;;;9.10;96.40;;;;;;4800081;29;20108;-81
2021/12/01 07:03:50;;;;;;;2.97;0.50;;;9.20;96.30;;;;;;4815905;29;20042;-81
2021/12/01 07:06:15;;;;;;;1.25;0.60;;;9.20;96.20;;;;;;4798838;29;20058;-81
2021/12/01 07:08:41;;;;;;;1.88;0.70;;;9.20;95.80;;;;;;4815536;29;20034;-81
2021/12/01 07:11:07;;;;;;;1.02;0.60;;;9.20;95.80;;;;;;4800978;29;20031;-81
2021/12/01 07:13:34;;;;;;;1.00;0.60;;;9.20;95.50;;;;;;4805586;29;20074;-81
2021/12/01 07:16:01;;;;;;;0.50;0.50;;;9.30;95.40;;;;;;4811846;29;20034;-81
2021/12/01 07:18:27;;;;;;;1.15;0.68;;;9.30;95.20;;;;;;4814936;29;20067;-81
2021/12/01 07:20:53;;;;;;;0.60;0.40;;;9.30;95.20;;;;;;4793202;29;20330;-81
2021/12/01 07:23:19;;;;;;;0.30;0.30;;;9.30;94.80;;;;;;4810403;29;20084;-81
2021/12/01 07:25:45;;;;;;;0.73;0.40;;;9.30;94.80;;;;;;4815276;29;20353;-81
2021/12/01 07:28:11;;;;;;;1.88;0.50;;;9.30;94.50;;;;;;4815879;29;20033;-81
2021/12/01 07:30:39;;;;;;;0.60;0.30;;;9.40;94.50;;;;;;4815251;29;20035;-80
2021/12/01 07:33:08;;;;;;;1.30;0.52;;;9.40;94.50;;;;;;4828722;29;20035;-80
2021/12/01 07:35:33;;;;;;;1.77;0.50;;;9.50;94.30;;;;;;4815056;29;20061;-81
2021/12/01 07:37:59;;;;;;;2.63;0.70;;;9.50;94.30;;;;;;4814999;29;20331;-81
2021/12/01 07:40:26;;;;;;;1.08;0.60;;;9.60;94.20;;;;;;4812542;29;20242;-81
2021/12/01 07:42:52;;;;;;;0.57;0.38;;;9.60;94.20;;;;;;4825133;29;20094;-81
2021/12/01 07:45:18;;;;;;;1.30;0.68;;;9.60;94.30;;;;;;4794910;29;20235;-81
2021/12/01 07:47:44;;;;;;;0.82;0.43;;;9.60;94.90;;;;;;4814738;29;20247;-82
2021/12/01 07:50:10;;;;;;;2.05;0.60;;;9.50;94.80;;;;;;4830018;29;20061;-80
2021/12/01 07:52:38;;;;;;;1.50;0.70;;;9.60;94.90;;;;;;4810923;29;20315;-81
2021/12/01 07:55:06;;;;;;;1.02;0.50;;;9.50;94.60;;;;;;4812569;29;20030;-80
2021/12/01 07:57:33;;;;;;;0.77;0.30;;;9.60;94.40;;;;;;4824868;29;20031;-80
2021/12/01 07:59:59;;;;;;;2.28;0.60;;;9.60;94.30;;;;;;4828132;29;20043;-81
2021/12/01 08:02:25;;;;;;;3.20;0.88;;;9.60;94.30;;;;;;4813597;29;20060;-81
2021/12/01 08:04:51;;;;;;;1.30;0.70;;;9.70;94.20;;;;;;4814531;29;20042;-81
2021/12/01 08:07:18;;;;;;;1.90;1.00;;;9.70;94.00;;;;;;4787502;29;20237;-81
2021/12/01 08:09:44;;;;;;;3.45;0.82;;;9.80;94.00;;;;;;4811929;29;20039;-81
2021/12/01 08:12:13;;;;;;;1.30;0.80;;;9.80;94.00;;;;;;4813592;29;20061;-81
2021/12/01 08:14:39;;;;;;;1.35;0.70;;;9.80;94.00;;;;;;4813773;29;20063;-81
2021/12/01 08:17:05;;;;;;;0.98;0.73;;;9.90;94.00;;;;;;4813534;29;20030;-81
2021/12/01 08:19:33;;;;;;;3.92;0.80;;;9.90;93.70;;;;;;4810980;29;20042;-81
2021/12/01 08:21:59;;;;;;;3.58;1.40;;;10.00;93.70;;;;;;4796478;29;20080;-81
2021/12/01 08:24:25;;;;;;;1.38;0.80;;;10.00;93.60;;;;;;4791191;29;20102;-81
2021/12/01 08:26:53;;;;;;;1.40;0.73;;;10.00;93.60;;;;;;4798880;29;20042;-81
2021/12/01 08:29:19;;;;;;;3.38;1.27;;;10.10;93.80;;;;;;4813234;29;20177;-81
2021/12/01 08:31:45;;;;;;;1.83;0.77;;;10.10;93.60;;;;;;4806552;29;20035;-81
2021/12/01 08:34:11;;;;;;;1.30;0.80;;;10.00;93.70;;;;;;4807748;29;20234;-81
2021/12/01 08:36:38;;;;;;;1.27;0.70;;;10.10;93.70;;;;;;4791062;29;20166;-81
2021/12/01 08:39:05;;;;;;;1.17;0.63;;;10.10;93.60;;;;;;4809047;29;20603;-81
2021/12/01 08:41:31;;;;;;;;;;;10.10;93.30;;;;;;4819975;29;20091;-81
2021/12/01 08:43:56;;;;;;;0.80;0.50;;;10.10;93.30;;;;;;4812513;29;19913;-82
2021/12/01 08:46:22;;;;;;;1.85;0.50;;;10.20;93.40;;;;;;4807045;29;20126;-81
2021/12/01 08:48:48;;;;;;;4.40;0.90;;;10.20;93.40;;;;;;4810717;29;20035;-82
2021/12/01 08:51:14;;;;;;;0.93;0.55;;;10.20;93.70;;;;;;4795651;29;20039;-81
2021/12/01 08:53:41;;;;;;;1.55;0.68;;;10.20;93.80;;;;;;4788355;29;20076;-82
2021/12/01 08:56:09;;;;;;;1.08;0.80;;;10.20;93.90;;;;;;4813888;29;20097;-83
2021/12/01 08:59:42;;;;;;;;;;;;;;;;;;;;;
2021/12/01 09:06:56;;;;;;;0.57;0.40;;;10.30;94.80;;;;;;4809769;29;20039;-83
2021/12/01 09:09:30;;;;;;;1.77;0.80;;;10.20;94.60;;;;;;4731988;30;20113;-83
2021/12/01 09:11:57;;;;;;;1.15;0.80;;;10.20;95.00;;;;;;4745304;30;20315;-82
2021/12/01 09:14:26;;;;;;;1.45;0.60;;;10.20;95.00;;;;;;4726438;30;20052;-83
2021/12/01 09:16:55;;;;;;;1.27;0.82;;;10.20;94.90;;;;;;4727456;30;20067;-83
2021/12/01 09:19:22;;;;;;;1.23;0.68;;;10.20;95.20;;;;;;4756055;30;20132;-83
2021/12/01 09:21:51;;;;;;;1.15;0.60;;;10.20;95.20;;;;;;4758075;30;20044;-83
2021/12/01 09:24:20;;;;;;;3.42;0.70;;;10.20;95.40;;;;;;4756504;30;20387;-83
2021/12/01 09:26:46;;;;;;;1.20;0.50;;;10.20;95.40;;;;;;4741438;30;20186;-82
2021/12/01 09:29:12;;;;;;;3.17;0.82;;;10.30;95.60;;;;;;4742026;30;20059;-83
2021/12/01 09:31:40;;;;;;;0.98;0.52;;;10.30;95.60;;;;;;4741019;30;20056;-83
2021/12/01 09:34:06;;;;;;;0.43;0.30;;;10.30;95.60;;;;;;4737974;30;20230;-83
2021/12/01 09:36:32;;;;;;;3.30;0.88;;;10.20;95.60;;;;;;4720696;30;20041;-84
2021/12/01 09:38:58;;;;;;;0.43;0.40;;;10.20;96.20;;;;;;4705412;30;20409;-83
2021/12/01 09:41:25;;;;;;;1.65;0.60;;;10.20;96.40;;;;;;4780175;30;20043;-83
2021/12/01 09:43:51;;;;;;;0.50;0.40;;;10.10;96.30;;;;;;4777810;30;20055;-83
2021/12/01 09:46:18;;;;;;;1.00;0.47;;;10.10;96.50;;;;;;4793722;29;20055;-80
2021/12/01 09:48:44;;;;;;;1.77;0.50;;;10.00;96.30;;;;;;4801631;29;20394;-83
2021/12/01 09:51:11;;;;;;;1.73;0.82;;;10.00;96.40;;;;;;4779089;30;20085;-83
2021/12/01 09:53:38;;;;;;;1.90;0.85;;;10.10;96.70;;;;;;4794085;29;20027;-83
2021/12/01 09:56:04;;;;;;;0.93;0.52;;;10.10;96.60;;;;;;4779379;30;20244;-83
2021/12/01 09:58:31;;;;;;;4.68;0.80;;;10.10;96.70;;;;;;4779374;30;20126;-83
2021/12/01 10:01:04;;;;;;;;;;;10.10;96.60;;;;;;4765333;30;20043;-84
2021/12/01 10:03:30;;;;;;;2.25;1.05;;;10.10;96.30;;;;;;4780152;30;20140;-84
2021/12/01 10:06:10;;;;;;;1.92;0.68;;;10.10;96.60;;;;;;4805616;29;20099;-84
2021/12/01 10:09:13;;;;;;;3.85;0.60;;;10.10;96.20;;;;;;4793055;29;20034;-84
2021/12/01 10:11:49;;;;;;;0.82;0.40;;;10.10;96.00;;;;;;4797709;29;20265;-83
2021/12/01 10:14:35;;;;;;;0.47;0.47;;;10.10;96.00;;;;;;4774866;30;20070;-83
2021/12/01 10:17:04;;;;;;;1.25;0.50;;;10.10;95.90;;;;;;4744635;30;20079;-83
2021/12/01 10:19:51;;;;;;;;;;;;;;;;;;;;;
2021/12/01 10:22:17;;;;;;;7.15;0.90;;;10.10;96.00;;;;;;4723072;30;20095;-83
2021/12/01 10:24:52;;;;;;;5.22;0.68;;;10.10;95.70;;;;;;4712068;30;20045;-83
2021/12/01 10:27:21;;;;;;;1.45;0.70;;;10.10;95.80;;;;;;4715513;30;20371;-82
2021/12/01 10:29:49;;;;;;;2.58;1.08;;;10.20;95.80;;;;;;4708896;30;20111;-83
2021/12/01 10:32:18;;;;;;;2.53;0.90;;;10.30;95.70;;;;;;4710327;30;20179;-83
2021/12/01 10:34:50;;;;;;;2.55;0.73;;;10.30;95.40;;;;;;4710977;30;20052;-82
2021/12/01 10:37:25;;;;;;;1.67;0.65;;;10.30;95.40;;;;;;4709492;30;20124;-82
2021/12/01 10:40:09;;;;;;;0.80;0.70;;;10.30;95.10;;;;;;4726225;30;20083;-83
2021/12/01 10:42:53;;;;;;;5.15;0.77;;;10.40;95.10;;;;;;4725875;30;20084;-83
2021/12/01 10:45:25;;;;;;;2.65;0.80;;;10.40;94.90;;;;;;4725700;30;20055;-82
2021/12/01 10:47:51;;;;;;;0.68;0.60;;;10.40;94.50;;;;;;4717040;30;20064;-83
2021/12/01 10:50:19;;;;;;;2.43;0.60;;;10.50;94.80;;;;;;4724324;30;20040;-82
2021/12/01 10:52:55;;;;;;;3.95;1.42;;;10.50;94.70;;;;;;4809956;29;20114;-82
2021/12/01 10:55:23;;;;;;;6.28;4.10;;;10.60;94.90;;;;;;4801294;29;20038;-83
2021/12/01 10:57:54;;;;;;;1.77;1.17;;;10.70;94.80;;;;;;4805080;29;20078;-83
2021/12/01 11:00:26;;;;;;;2.60;1.30;;;10.70;94.90;;;;;;4804136;29;20039;-83
2021/12/01 11:03:08;;;;;;;13.63;6.13;;;10.80;94.30;;;;;;4813935;29;20357;-82
2021/12/01 11:05:42;;;;;;;6.78;3.45;;;10.80;94.00;;;;;;4814589;29;20102;-82
2021/12/01 11:08:21;;;;;;;5.18;2.92;;;10.80;94.10;;;;;;4821756;29;20106;-83
2021/12/01 11:10:54;;;;;;;4.22;2.10;;;10.90;94.20;;;;;;4827527;29;20320;-83
2021/12/01 11:13:21;;;;;;;3.17;1.23;;;11.00;94.10;;;;;;4815642;29;20037;-83
2021/12/01 11:16:17;;;;;;;2.03;1.00;;;11.00;94.20;;;;;;4819748;29;20329;-84
2021/12/01 11:18:50;;;;;;;;;;;11.20;93.80;;;;;;4815853;29;20043;-84
2021/12/01 11:21:22;;;;;;;3.97;1.40;;;11.20;94.00;;;;;;4808686;29;19924;-84
2021/12/01 11:24:17;;;;;;;2.88;1.60;;;11.30;94.00;;;;;;4800408;29;20130;-84
2021/12/01 11:26:44;;;;;;;2.85;1.30;;;11.40;94.00;;;;;;4757105;30;20040;-84
2021/12/01 11:29:12;;;;;;;4.55;1.30;;;11.40;94.10;;;;;;4747556;30;20228;-84
2021/12/01 11:31:47;;;;;;;2.63;1.35;;;11.40;94.00;;;;;;4764306;30;20070;-84
2021/12/01 11:34:17;;;;;;;3.42;1.40;;;11.50;93.70;;;;;;4743399;30;20227;-84
2021/12/01 11:36:48;;;;;;;4.25;2.28;;;11.60;93.50;;;;;;4756095;30;20039;-84
2021/12/01 11:39:25;;;;;;;3.47;1.48;;;11.50;93.40;;;;;;4749214;30;20040;-84
2021/12/01 11:41:53;;;;;;;3.03;1.67;;;11.50;93.70;;;;;;4760977;30;20097;-84
2021/12/01 11:44:19;;;;;;;10.15;2.05;;;11.60;93.60;;;;;;4767153;30;20040;-84
2021/12/01 11:46:48;;;;;;;7.15;2.05;;;11.70;93.50;;;;;;4752126;30;20420;-83
2021/12/01 11:49:16;;;;;;;5.05;1.33;;;11.70;93.20;;;;;;4776225;30;20050;-84
2021/12/01 11:52:04;;;;;;;4.88;1.38;;;11.70;93.10;;;;;;4754341;30;20044;-84
2021/12/01 11:54:31;;;;;;;5.65;1.30;;;11.80;93.10;;;;;;4776503;30;20066;-84
2021/12/01 11:57:04;;;;;;;3.97;1.50;;;11.80;93.10;;;;;;4761051;30;20054;-84
2021/12/01 11:59:38;;;;;;;4.05;1.20;;;11.80;93.00;;;;;;4774319;30;20032;-84
2021/12/01 12:02:07;;;;;;;7.40;1.20;;;11.80;93.20;;;;;;4751769;30;20044;-84
2021/12/01 12:04:52;;;;;;;7.55;1.95;;;11.80;93.30;;;;;;4811875;29;20050;-84
2021/12/01 12:07:33;;;;;;;6.72;1.88;;;11.80;93.30;;;;;;4814716;29;20094;-84
2021/12/01 12:10:14;;;;;;;3.40;1.60;;;11.70;93.20;;;;;;4810375;29;20031;-84
2021/12/01 12:12:46;;;;;;;8.88;3.38;;;11.60;93.30;;;;;;4808903;29;20035;-83
2021/12/01 12:15:52;;;;;;;30.55;14.35;;;11.60;93.30;;;;;;4809762;29;20046;-84
2021/12/01 12:18:34;;;;;;;;;;;11.60;93.50;;;;;;4809969;29;20043;-83
2021/12/01 12:21:25;;;;;;;40.90;16.10;;;11.50;92.50;;;;;;4824909;29;19916;-84
2021/12/01 12:23:51;;;;;;;7.60;3.53;;;11.50;92.90;;;;;;4814732;29;20170;-82
2021/12/01 12:27:00;;;;;;;6.88;4.15;;;11.60;93.10;;;;;;4805481;29;20055;-82
2021/12/01 12:29:28;;;;;;;5.22;2.53;;;11.60;93.10;;;;;;4800966;29;20042;-82
2021/12/01 12:32:15;;;;;;;16.25;9.70;;;11.60;92.70;;;;;;4788152;29;20066;-82
2021/12/01 12:34:52;;;;;;;7.40;4.93;;;11.60;92.20;;;;;;4803896;29;20113;-82
2021/12/01 12:37:23;;;;;;;10.57;5.53;;;11.50;91.80;;;;;;4825978;29;20054;-82
2021/12/01 12:39:49;;;;;;;11.80;4.85;;;11.50;91.80;;;;;;4816990;29;20095;-82
2021/12/01 12:42:15;;;;;;;6.57;4.47;;;11.40;92.00;;;;;;4798882;29;20073;-82
2021/12/01 12:45:24;;;;;;;4.10;3.13;;;11.40;92.10;;;;;;4831457;29;20058;-82
2021/12/01 12:47:52;;;;;;;5.13;3.17;;;11.50;92.30;;;;;;4770657;30;20062;-82
2021/12/01 12:50:20;;;;;;;11.68;7.40;;;11.50;92.50;;;;;;4753144;30;20036;-82
2021/12/01 12:52:50;;;;;;;12.25;9.98;;;11.60;92.20;;;;;;4749277;30;20142;-82
2021/12/01 12:55:21;;;;;;;3.88;2.90;;;11.60;92.10;;;;;;4758278;30;20032;-82
2021/12/01 12:57:51;;;;;;;4.68;1.92;;;11.60;91.70;;;;;;4770737;30;20100;-82
2021/12/01 13:00:20;;;;;;;3.03;1.55;;;11.50;91.40;;;;;;4757441;30;20047;-82
2021/12/01 13:02:46;;;;;;;3.42;1.75;;;11.50;91.20;;;;;;4776865;30;20039;-82
2021/12/01 13:05:12;;;;;;;6.05;1.92;;;11.60;91.30;;;;;;4760455;30;20040;-81
2021/12/01 13:07:48;;;;;;;14.57;6.05;;;11.60;91.00;;;;;;4748851;30;20102;-82
2021/12/01 13:10:23;;;;;;;11.35;3.08;;;11.70;90.70;;;;;;4733345;30;20040;-82
2021/12/01 13:13:14;;;;;;;6.50;2.65;;;11.70;90.40;;;;;;4744859;30;20229;-82
2021/12/01 13:15:45;;;;;;;4.40;2.10;;;11.80;90.70;;;;;;4756583;30;20028;-82
2021/12/01 13:18:16;;;;;;;6.55;2.45;;;11.90;90.70;;;;;;4757301;30;20067;-82
2021/12/01 13:20:56;;;;;;;4.40;2.00;;;12.00;90.50;;;;;;4759127;30;20074;-82
2021/12/01 13:23:44;;;;;;;7.22;1.75;;;12.00;90.20;;;;;;4742515;30;20047;-82
2021/12/01 13:26:18;;;;;;;2.33;1.40;;;12.00;89.60;;;;;;4798256;29;20108;-82
2021/12/01 13:28:46;;;;;;;6.72;1.67;;;11.90;88.80;;;;;;4817260;29;20110;-82
2021/12/01 13:31:15;;;;;;;4.07;1.90;;;11.90;89.10;;;;;;4808007;29;20034;-82
2021/12/01 13:34:06;;;;;;;4.82;2.08;;;11.90;88.90;;;;;;4806624;29;20721;-82
2021/12/01 13:36:39;;;;;;;3.28;1.70;;;11.90;88.10;;;;;;4802522;29;20052;-82
2021/12/01 13:39:21;;;;;;;6.50;1.95;;;11.90;88.90;;;;;;4823253;29;20338;-82
2021/12/01 13:41:52;;;;;;;4.30;1.95;;;11.90;88.80;;;;;;4815289;29;20356;-82
2021/12/01 13:44:48;;;;;;;2.88;1.88;;;11.80;89.10;;;;;;4796159;29;20043;-82
2021/12/01 13:47:26;;;;;;;4.60;2.15;;;11.80;88.90;;;;;;4789679;29;20358;-81
2021/12/01 13:50:00;;;;;;;5.20;2.13;;;11.70;88.60;;;;;;4805609;29;20231;-82
2021/12/01 13:52:38;;;;;;;7.00;3.22;;;11.70;89.10;;;;;;4806562;29;20185;-82
2021/12/01 13:55:23;;;;;;;10.38;3.97;;;11.70;89.80;;;;;;4809711;29;20333;-82
2021/12/01 13:57:53;;;;;;;6.00;2.33;;;11.70;90.00;;;;;;4795191;29;20119;-82
2021/12/01 14:00:44;;;;;;;10.07;3.72;;;11.70;89.80;;;;;;4834605;29;20034;-82
2021/12/01 14:03:12;;;;;;;7.53;2.63;;;11.70;89.60;;;;;;4813574;29;20043;-82
2021/12/01 14:05:41;;;;;;;6.57;2.78;;;11.70;89.70;;;;;;4806277;29;20301;-82
2021/12/01 14:08:29;;;;;;;7.30;2.13;;;11.70;90.10;;;;;;4800041;29;20034;-82
2021/12/01 14:11:22;;;;;;;7.07;2.63;;;11.70;90.10;;;;;;4834054;29;20069;-82
2021/12/01 14:13:50;;;;;;;4.30;2.50;;;11.70;90.20;;;;;;4818679;29;20238;-82
2021/12/01 14:16:21;;;;;;;6.28;3.13;;;11.60;90.20;;;;;;4812483;29;20119;-82
2021/12/01 14:18:47;;;;;;;8.23;3.58;;;11.60;90.40;;;;;;4808592;29;20296;-82
2021/12/01 14:21:18;;;;;;;12.98;5.45;;;11.50;90.40;;;;;;4805579;29;20329;-82
2021/12/01 14:23:54;;;;;;;9.18;4.60;;;11.50;90.60;;;;;;4816372;29;20043;-82
2021/12/01 14:26:27;;;;;;;7.13;3.40;;;11.50;90.80;;;;;;4801523;29;20107;-82
2021/12/01 14:28:59;;;;;;;19.95;8.25;;;11.50;91.30;;;;;;4812057;29;20043;-82
2021/12/01 14:31:25;;;;;;;14.18;5.20;;;11.40;91.10;;;;;;4816454;29;20279;-82
2021/12/01 14:34:21;;;;;;;8.77;4.55;;;11.50;91.30;;;;;;4816274;29;20037;-82
2021/12/01 14:36:52;;;;;;;17.08;7.07;;;11.50;91.40;;;;;;4812873;29;20054;-82
2021/12/01 14:39:19;;;;;;;12.32;4.03;;;11.40;91.00;;;;;;4813725;29;20038;-82
2021/12/01 14:41:48;;;;;;;7.05;3.67;;;11.40;91.20;;;;;;4803611;29;20042;-82
2021/12/01 14:44:14;;;;;;;6.60;3.15;;;11.40;91.20;;;;;;4818162;29;20343;-82
2021/12/01 14:46:42;;;;;;;12.23;3.00;;;11.30;91.40;;;;;;4815823;29;20050;-83
2021/12/01 14:49:16;;;;;;;12.10;5.47;;;11.30;91.50;;;;;;4814973;29;20281;-82
2021/12/01 14:51:44;;;;;;;9.32;4.55;;;11.30;91.70;;;;;;4811402;29;20263;-82
2021/12/01 14:54:12;;;;;;;10.98;4.75;;;11.30;91.50;;;;;;4799452;29;20102;-81
2021/12/01 14:56:38;;;;;;;8.90;4.65;;;11.20;91.40;;;;;;4815298;29;20026;-81
2021/12/01 14:59:05;;;;;;;11.02;5.32;;;11.10;91.50;;;;;;4806302;29;20046;-81
2021/12/01 15:01:32;;;;;;;13.60;7.63;;;11.00;91.60;;;;;;4814637;29;20246;-81
2021/12/01 15:04:09;;;;;;;14.15;6.40;;;10.90;91.80;;;;;;4791637;29;20311;-81
2021/12/01 15:06:39;;;;;;;20.23;15.93;;;10.90;92.00;;;;;;4811189;29;20049;-81
2021/12/01 15:09:05;;;;;;;27.75;21.23;;;10.80;92.30;;;;;;4797407;29;20034;-81
2021/12/01 15:11:42;;;;;;;38.92;23.40;;;10.70;92.40;;;;;;4785917;29;20275;-81
2021/12/01 15:14:09;;;;;;;31.60;22.63;;;10.70;92.60;;;;;;4792304;29;20058;-81
2021/12/01 15:16:35;;;;;;;;;;;10.60;92.70;;;;;;4812977;29;20050;-82
2021/12/01 15:19:11;;;;;;;16.10;8.63;;;10.50;92.90;;;;;;4830183;29;20269;-81
2021/12/01 15:21:46;;;;;;;13.70;7.27;;;10.50;92.90;;;;;;4815629;29;20212;-82
2021/12/01 15:24:15;;;;;;;14.38;5.90;;;10.50;93.10;;;;;;4809567;29;20038;-82
2021/12/01 15:26:46;;;;;;;10.93;5.55;;;10.40;93.20;;;;;;4811534;29;20035;-82
2021/12/01 15:29:14;;;;;;;8.70;4.72;;;10.30;93.40;;;;;;4814156;29;20027;-82
2021/12/01 15:31:59;;;;;;;8.10;4.50;;;10.20;93.50;;;;;;4811571;29;20094;-82
2021/12/01 15:34:27;;;;;;;7.63;4.45;;;10.20;93.70;;;;;;4819241;29;20072;-82
2021/12/01 15:36:53;;;;;;;7.90;4.32;;;10.20;93.80;;;;;;4815310;29;20096;-82
2021/12/01 15:39:25;;;;;;;14.60;7.07;;;10.20;93.80;;;;;;4803692;29;20052;-82
2021/12/01 15:41:55;;;;;;;15.00;7.00;;;10.10;93.60;;;;;;4830110;29;20039;-82
2021/12/01 15:44:21;;;;;;;16.17;8.20;;;10.10;93.70;;;;;;4825508;29;20052;-82
2021/12/01 15:46:47;;;;;;;12.57;6.50;;;10.10;93.60;;;;;;4798952;29;20134;-82
2021/12/01 15:49:15;;;;;;;14.52;6.50;;;10.00;93.50;;;;;;4815112;29;20031;-82
2021/12/01 15:51:42;;;;;;;30.38;14.90;;;10.00;93.50;;;;;;4815293;29;20027;-82
2021/12/01 15:54:09;;;;;;;24.67;14.65;;;10.00;93.50;;;;;;4808441;29;20023;-81
2021/12/01 15:56:36;;;;;;;11.70;7.30;;;9.90;93.30;;;;;;4784184;29;20222;-81
2021/12/01 15:59:04;;;;;;;12.98;7.03;;;9.90;93.40;;;;;;4813495;29;20076;-81
2021/12/01 16:01:30;;;;;;;15.60;8.77;;;9.90;93.50;;;;;;4812457;29;20034;-81
2021/12/01 16:03:56;;;;;;;18.98;7.95;;;9.90;93.30;;;;;;4800067;29;20069;-81
2021/12/01 16:06:22;;;;;;;11.25;4.97;;;9.80;93.20;;;;;;4812091;29;20054;-81
2021/12/01 16:08:48;;;;;;;15.30;6.00;;;9.80;93.20;;;;;;4795605;29;20110;-81
2021/12/01 16:11:16;;;;;;;9.33;5.10;;;9.80;93.10;;;;;;4792925;29;20259;-81
2021/12/01 16:13:47;;;;;;;11.60;5.43;;;9.80;93.10;;;;;;4829279;29;20026;-82
2021/12/01 16:16:13;;;;;;;14.95;5.28;;;9.80;93.10;;;;;;4813393;29;20038;-81
2021/12/01 16:18:39;;;;;;;16.27;5.20;;;9.70;93.10;;;;;;4814757;29;20168;-81
2021/12/01 16:21:05;;;;;;;15.27;6.57;;;9.70;93.20;;;;;;4804236;29;20047;-81
2021/12/01 16:23:33;;;;;;;12.52;6.50;;;9.70;93.30;;;;;;4801299;29;20152;-82
2021/12/01 16:25:59;;;;;;;11.93;6.05;;;9.70;93.30;;;;;;4806215;29;20367;-82
2021/12/01 16:28:26;;;;;;;12.87;6.80;;;9.60;93.40;;;;;;4799402;29;20049;-82
2021/12/01 16:30:56;;;;;;;16.05;6.43;;;9.70;93.50;;;;;;4804444;29;20031;-82
2021/12/01 16:33:27;;;;;;;12.18;6.45;;;9.60;93.50;;;;;;4807189;29;20035;-83
2021/12/01 16:35:54;;;;;;;53.58;21.92;;;9.60;93.50;;;;;;4813961;29;20268;-82
2021/12/01 16:38:20;;;;;;;129.23;62.38;;;9.60;93.40;;;;;;4828255;29;20034;-82
2021/12/01 16:40:46;;;;;;;111.20;60.70;;;9.60;93.40;;;;;;4813312;29;20053;-82
2021/12/01 16:43:16;;;;;;;24.13;13.20;;;9.50;93.50;;;;;;4798505;29;20034;-83
2021/12/01 16:45:43;;;;;;;11.95;5.85;;;9.50;93.40;;;;;;4817128;29;20037;-82
2021/12/01 16:48:10;;;;;;;8.13;4.85;;;9.50;93.20;;;;;;4820287;29;20353;-82
2021/12/01 16:50:37;;;;;;;10.13;4.97;;;9.40;93.20;;;;;;4823332;29;20064;-82
2021/12/01 16:53:03;;;;;;;15.95;6.70;;;9.40;93.10;;;;;;4819380;29;20054;-82
2021/12/01 16:55:30;;;;;;;12.48;5.75;;;9.40;93.10;;;;;;4814156;29;20027;-82
2021/12/01 16:57:58;;;;;;;11.38;5.65;;;9.40;93.20;;;;;;4815398;29;20330;-81
2021/12/01 17:00:30;;;;;;;11.95;5.43;;;9.30;93.20;;;;;;4826123;29;20055;-80